sensor_id;sensor_type;location;lat;lon;timestamp;pressure;altitude;pressure_sealevel;temperature;humidity
51999;BME280;38015;50.924;11.598;2022-07-29T00:01:25;99600.50;;;25.86;31.78
51999;BME280;38015;50.924;11.598;2022-07-29T00:03:55;99597.76;;;25.85;31.79
51999;BME280;38015;50.924;11.598;2022-07-29T00:06:26;99591.39;;;25.84;31.83
51999;BME280;38015;50.924;11.598;2022-07-29T00:08:56;99593.80;;;25.83;31.78
51999;BME280;38015;50.924;11.598;2022-07-29T00:11:26;99590.20;;;25.84;31.86
51999;BME280;38015;50.924;11.598;2022-07-29T00:13:57;99588.01;;;25.87;31.72
51999;BME280;38015;50.924;11.598;2022-07-29T00:16:27;99591.05;;;25.83;31.80
51999;BME280;38015;50.924;11.598;2022-07-29T00:18:57;99590.54;;;25.85;31.77
51999;BME280;38015;50.924;11.598;2022-07-29T00:21:28;99589.45;;;25.82;31.84
51999;BME280;38015;50.924;11.598;2022-07-29T00:24:02;99583.92;;;25.87;31.72
51999;BME280;38015;50.924;11.598;2022-07-29T00:26:28;99579.03;;;25.84;31.79
51999;BME280;38015;50.924;11.598;2022-07-29T00:28:59;99575.50;;;25.85;31.80
51999;BME280;38015;50.924;11.598;2022-07-29T00:31:29;99576.73;;;25.85;31.78
51999;BME280;38015;50.924;11.598;2022-07-29T00:33:59;99577.49;;;25.84;31.89
51999;BME280;38015;50.924;11.598;2022-07-29T00:36:29;99571.79;;;25.81;31.89
51999;BME280;38015;50.924;11.598;2022-07-29T00:39:00;99569.02;;;25.81;31.86
51999;BME280;38015;50.924;11.598;2022-07-29T00:41:30;99570.62;;;25.86;32.04
51999;BME280;38015;50.924;11.598;2022-07-29T00:44:00;99571.48;;;25.83;31.87
51999;BME280;38015;50.924;11.598;2022-07-29T00:46:31;99571.17;;;25.88;31.84
51999;BME280;38015;50.924;11.598;2022-07-29T00:49:01;99572.03;;;25.87;31.78
51999;BME280;38015;50.924;11.598;2022-07-29T00:51:31;99574.32;;;25.80;31.93
51999;BME280;38015;50.924;11.598;2022-07-29T00:54:02;99571.03;;;25.84;31.83
51999;BME280;38015;50.924;11.598;2022-07-29T00:56:33;99565.90;;;25.85;31.84
51999;BME280;38015;50.924;11.598;2022-07-29T00:59:02;99561.82;;;25.76;32.03
51999;BME280;38015;50.924;11.598;2022-07-29T01:01:32;99561.67;;;25.77;32.01
51999;BME280;38015;50.924;11.598;2022-07-29T01:04:03;99556.75;;;25.78;32.09
51999;BME280;38015;50.924;11.598;2022-07-29T01:06:34;99553.87;;;25.80;31.92
51999;BME280;38015;50.924;11.598;2022-07-29T01:09:04;99553.09;;;25.77;32.23
51999;BME280;38015;50.924;11.598;2022-07-29T01:11:34;99555.54;;;25.79;31.97
51999;BME280;38015;50.924;11.598;2022-07-29T01:14:05;99552.08;;;25.80;31.94
51999;BME280;38015;50.924;11.598;2022-07-29T01:16:39;99548.87;;;25.81;31.91
51999;BME280;38015;50.924;11.598;2022-07-29T01:19:11;99546.90;;;25.80;31.96
51999;BME280;38015;50.924;11.598;2022-07-29T01:21:47;99546.30;;;25.85;31.95
51999;BME280;38015;50.924;11.598;2022-07-29T01:24:19;99550.70;;;25.79;31.97
51999;BME280;38015;50.924;11.598;2022-07-29T01:26:42;99550.46;;;25.82;32.02
51999;BME280;38015;50.924;11.598;2022-07-29T01:29:11;99542.37;;;25.81;31.96
51999;BME280;38015;50.924;11.598;2022-07-29T01:31:43;99542.28;;;25.80;31.96
51999;BME280;38015;50.924;11.598;2022-07-29T01:34:11;99537.74;;;25.90;31.90
51999;BME280;38015;50.924;11.598;2022-07-29T01:36:43;99532.95;;;25.83;31.97
51999;BME280;38015;50.924;11.598;2022-07-29T01:39:12;99525.70;;;25.85;31.88
51999;BME280;38015;50.924;11.598;2022-07-29T01:41:43;99525.10;;;25.83;31.90
51999;BME280;38015;50.924;11.598;2022-07-29T01:44:13;99525.85;;;25.83;31.91
51999;BME280;38015;50.924;11.598;2022-07-29T01:46:42;99520.14;;;25.85;31.90
51999;BME280;38015;50.924;11.598;2022-07-29T01:49:13;99518.80;;;25.80;32.10
51999;BME280;38015;50.924;11.598;2022-07-29T01:51:43;99513.88;;;25.80;32.00
51999;BME280;38015;50.924;11.598;2022-07-29T01:54:14;99512.11;;;25.84;32.15
51999;BME280;38015;50.924;11.598;2022-07-29T01:56:42;99513.48;;;25.81;32.02
51999;BME280;38015;50.924;11.598;2022-07-29T01:59:11;99511.63;;;25.78;32.04
51999;BME280;38015;50.924;11.598;2022-07-29T02:01:42;99515.80;;;25.77;32.09
51999;BME280;38015;50.924;11.598;2022-07-29T02:04:12;99518.43;;;25.76;32.09
51999;BME280;38015;50.924;11.598;2022-07-29T02:06:42;99516.74;;;25.85;32.05
51999;BME280;38015;50.924;11.598;2022-07-29T02:09:13;99518.43;;;25.80;32.03
51999;BME280;38015;50.924;11.598;2022-07-29T02:11:49;99518.18;;;25.79;32.21
51999;BME280;38015;50.924;11.598;2022-07-29T02:14:13;99519.94;;;25.78;32.06
51999;BME280;38015;50.924;11.598;2022-07-29T02:16:43;99527.05;;;25.82;32.03
51999;BME280;38015;50.924;11.598;2022-07-29T02:19:14;99523.30;;;25.74;32.20
51999;BME280;38015;50.924;11.598;2022-07-29T02:21:44;99520.06;;;25.76;32.11
51999;BME280;38015;50.924;11.598;2022-07-29T02:24:16;99518.68;;;25.77;32.12
51999;BME280;38015;50.924;11.598;2022-07-29T02:26:44;99519.23;;;25.79;32.10
51999;BME280;38015;50.924;11.598;2022-07-29T02:29:15;99518.45;;;25.77;32.12
51999;BME280;38015;50.924;11.598;2022-07-29T02:31:46;99522.42;;;25.76;32.13
51999;BME280;38015;50.924;11.598;2022-07-29T02:34:15;99522.26;;;25.79;32.06
51999;BME280;38015;50.924;11.598;2022-07-29T02:36:45;99522.58;;;25.78;32.16
51999;BME280;38015;50.924;11.598;2022-07-29T02:39:17;99520.63;;;25.80;32.19
51999;BME280;38015;50.924;11.598;2022-07-29T02:41:48;99517.39;;;25.76;32.17
51999;BME280;38015;50.924;11.598;2022-07-29T02:44:18;99515.14;;;25.79;32.10
51999;BME280;38015;50.924;11.598;2022-07-29T02:46:50;99514.16;;;25.79;32.12
51999;BME280;38015;50.924;11.598;2022-07-29T02:49:27;99510.60;;;25.79;32.20
51999;BME280;38015;50.924;11.598;2022-07-29T02:51:54;99508.52;;;25.80;32.08
51999;BME280;38015;50.924;11.598;2022-07-29T02:54:23;99506.92;;;25.75;32.25
51999;BME280;38015;50.924;11.598;2022-07-29T02:56:48;99502.11;;;25.76;32.18
51999;BME280;38015;50.924;11.598;2022-07-29T02:59:23;99494.93;;;25.75;32.17
51999;BME280;38015;50.924;11.598;2022-07-29T03:01:49;99494.37;;;25.76;32.25
51999;BME280;38015;50.924;11.598;2022-07-29T03:04:19;99498.27;;;25.77;32.18
51999;BME280;38015;50.924;11.598;2022-07-29T03:06:49;99501.92;;;25.81;32.08
51999;BME280;38015;50.924;11.598;2022-07-29T03:09:19;99505.21;;;25.76;32.17
51999;BME280;38015;50.924;11.598;2022-07-29T03:11:49;99508.01;;;25.75;32.25
51999;BME280;38015;50.924;11.598;2022-07-29T03:14:20;99507.38;;;25.73;32.22
51999;BME280;38015;50.924;11.598;2022-07-29T03:16:50;99510.04;;;25.75;32.24
51999;BME280;38015;50.924;11.598;2022-07-29T03:19:21;99513.30;;;25.74;32.29
51999;BME280;38015;50.924;11.598;2022-07-29T03:21:51;99512.45;;;25.71;32.37
51999;BME280;38015;50.924;11.598;2022-07-29T03:24:28;99514.22;;;25.78;32.27
51999;BME280;38015;50.924;11.598;2022-07-29T03:26:52;99515.63;;;25.80;32.14
51999;BME280;38015;50.924;11.598;2022-07-29T03:29:23;99512.68;;;25.72;32.43
51999;BME280;38015;50.924;11.598;2022-07-29T03:31:53;99513.48;;;25.74;32.23
51999;BME280;38015;50.924;11.598;2022-07-29T03:34:23;99514.11;;;25.73;32.25
51999;BME280;38015;50.924;11.598;2022-07-29T03:36:53;99513.35;;;25.71;32.36
51999;BME280;38015;50.924;11.598;2022-07-29T03:39:27;99511.37;;;25.74;32.34
51999;BME280;38015;50.924;11.598;2022-07-29T03:41:56;99510.49;;;25.74;32.26
51999;BME280;38015;50.924;11.598;2022-07-29T03:44:26;99511.66;;;25.79;32.25
51999;BME280;38015;50.924;11.598;2022-07-29T03:46:56;99515.66;;;25.76;32.27
51999;BME280;38015;50.924;11.598;2022-07-29T03:49:26;99518.47;;;25.76;32.25
51999;BME280;38015;50.924;11.598;2022-07-29T03:51:55;99518.94;;;25.74;32.27
51999;BME280;38015;50.924;11.598;2022-07-29T03:54:25;99516.70;;;25.71;32.30
51999;BME280;38015;50.924;11.598;2022-07-29T03:56:59;99514.49;;;25.72;32.30
51999;BME280;38015;50.924;11.598;2022-07-29T03:59:27;99518.90;;;25.75;32.26
51999;BME280;38015;50.924;11.598;2022-07-29T04:01:57;99523.77;;;25.69;32.40
51999;BME280;38015;50.924;11.598;2022-07-29T04:04:27;99527.45;;;25.73;32.31
51999;BME280;38015;50.924;11.598;2022-07-29T04:06:57;99528.84;;;25.72;32.34
51999;BME280;38015;50.924;11.598;2022-07-29T04:09:27;99528.77;;;25.75;32.33
51999;BME280;38015;50.924;11.598;2022-07-29T04:11:58;99530.51;;;25.71;32.35
51999;BME280;38015;50.924;11.598;2022-07-29T04:14:29;99534.56;;;25.67;32.44
51999;BME280;38015;50.924;11.598;2022-07-29T04:16:59;99533.08;;;25.71;32.51
51999;BME280;38015;50.924;11.598;2022-07-29T04:19:29;99534.39;;;25.70;32.38
51999;BME280;38015;50.924;11.598;2022-07-29T04:22:00;99534.93;;;25.77;32.23
51999;BME280;38015;50.924;11.598;2022-07-29T04:24:31;99534.41;;;25.70;32.37
51999;BME280;38015;50.924;11.598;2022-07-29T04:26:59;99532.40;;;25.70;32.38
51999;BME280;38015;50.924;11.598;2022-07-29T04:29:30;99530.72;;;25.70;32.37
51999;BME280;38015;50.924;11.598;2022-07-29T04:32:00;99528.72;;;25.74;32.31
51999;BME280;38015;50.924;11.598;2022-07-29T04:34:31;99530.89;;;25.72;32.46
51999;BME280;38015;50.924;11.598;2022-07-29T04:37:01;99528.85;;;25.72;32.40
51999;BME280;38015;50.924;11.598;2022-07-29T04:39:31;99529.05;;;25.68;32.44
51999;BME280;38015;50.924;11.598;2022-07-29T04:42:02;99528.33;;;25.69;32.43
51999;BME280;38015;50.924;11.598;2022-07-29T04:44:32;99523.38;;;25.72;32.37
51999;BME280;38015;50.924;11.598;2022-07-29T04:47:02;99523.65;;;25.71;32.46
51999;BME280;38015;50.924;11.598;2022-07-29T04:49:32;99522.48;;;25.68;32.44
51999;BME280;38015;50.924;11.598;2022-07-29T04:52:03;99519.29;;;25.72;32.35
51999;BME280;38015;50.924;11.598;2022-07-29T04:54:33;99519.63;;;25.75;32.31
51999;BME280;38015;50.924;11.598;2022-07-29T04:57:03;99518.04;;;25.71;32.40
51999;BME280;38015;50.924;11.598;2022-07-29T04:59:34;99520.06;;;25.75;32.31
51999;BME280;38015;50.924;11.598;2022-07-29T05:02:04;99519.51;;;25.76;32.32
51999;BME280;38015;50.924;11.598;2022-07-29T05:04:34;99519.17;;;25.75;32.34
51999;BME280;38015;50.924;11.598;2022-07-29T05:07:05;99518.70;;;25.72;32.40
51999;BME280;38015;50.924;11.598;2022-07-29T05:09:35;99518.09;;;25.73;32.36
51999;BME280;38015;50.924;11.598;2022-07-29T05:12:06;99517.90;;;25.74;32.45
51999;BME280;38015;50.924;11.598;2022-07-29T05:14:35;99517.10;;;25.73;32.40
51999;BME280;38015;50.924;11.598;2022-07-29T05:17:06;99517.80;;;25.71;32.50
51999;BME280;38015;50.924;11.598;2022-07-29T05:19:36;99519.62;;;25.70;32.53
51999;BME280;38015;50.924;11.598;2022-07-29T05:22:07;99522.03;;;25.69;32.48
51999;BME280;38015;50.924;11.598;2022-07-29T05:24:38;99520.56;;;25.71;32.39
51999;BME280;38015;50.924;11.598;2022-07-29T05:27:07;99520.24;;;25.69;32.59
51999;BME280;38015;50.924;11.598;2022-07-29T05:29:37;99521.07;;;25.72;32.34
51999;BME280;38015;50.924;11.598;2022-07-29T05:32:08;99522.34;;;25.75;32.33
51999;BME280;38015;50.924;11.598;2022-07-29T05:34:38;99523.80;;;25.72;32.38
51999;BME280;38015;50.924;11.598;2022-07-29T05:37:08;99525.00;;;25.68;32.46
51999;BME280;38015;50.924;11.598;2022-07-29T05:39:39;99521.93;;;25.69;32.47
51999;BME280;38015;50.924;11.598;2022-07-29T05:42:09;99521.46;;;25.72;32.41
51999;BME280;38015;50.924;11.598;2022-07-29T05:44:39;99524.78;;;25.65;32.59
51999;BME280;38015;50.924;11.598;2022-07-29T05:47:10;99522.56;;;25.74;32.33
51999;BME280;38015;50.924;11.598;2022-07-29T05:49:40;99524.41;;;25.68;32.44
51999;BME280;38015;50.924;11.598;2022-07-29T05:52:10;99522.04;;;25.71;32.46
51999;BME280;38015;50.924;11.598;2022-07-29T05:54:41;99521.86;;;25.73;32.40
51999;BME280;38015;50.924;11.598;2022-07-29T05:57:15;99520.27;;;25.72;32.37
51999;BME280;38015;50.924;11.598;2022-07-29T05:59:41;99518.89;;;25.71;32.39
51999;BME280;38015;50.924;11.598;2022-07-29T06:02:11;99519.35;;;25.75;32.29
51999;BME280;38015;50.924;11.598;2022-07-29T06:04:42;99519.73;;;25.75;32.38
51999;BME280;38015;50.924;11.598;2022-07-29T06:07:12;99524.12;;;25.75;32.41
51999;BME280;38015;50.924;11.598;2022-07-29T06:09:43;99529.09;;;25.71;32.44
51999;BME280;38015;50.924;11.598;2022-07-29T06:12:13;99528.58;;;25.76;32.20
51999;BME280;38015;50.924;11.598;2022-07-29T06:14:43;99530.23;;;25.73;32.32
51999;BME280;38015;50.924;11.598;2022-07-29T06:17:15;99529.20;;;25.78;32.26
51999;BME280;38015;50.924;11.598;2022-07-29T06:19:44;99535.61;;;25.73;32.30
51999;BME280;38015;50.924;11.598;2022-07-29T06:22:15;99540.36;;;25.75;32.28
51999;BME280;38015;50.924;11.598;2022-07-29T06:24:44;99538.47;;;25.84;32.08
51999;BME280;38015;50.924;11.598;2022-07-29T06:27:15;99539.78;;;25.72;32.37
51999;BME280;38015;50.924;11.598;2022-07-29T06:29:45;99540.00;;;25.67;32.46
51999;BME280;38015;50.924;11.598;2022-07-29T06:32:15;99538.93;;;25.72;32.49
51999;BME280;38015;50.924;11.598;2022-07-29T06:34:46;99534.53;;;25.72;32.35
51999;BME280;38015;50.924;11.598;2022-07-29T06:37:17;99534.74;;;25.70;32.38
51999;BME280;38015;50.924;11.598;2022-07-29T06:39:47;99536.64;;;25.65;32.52
51999;BME280;38015;50.924;11.598;2022-07-29T06:42:17;99537.37;;;25.65;32.58
51999;BME280;38015;50.924;11.598;2022-07-29T06:44:47;99539.66;;;25.69;32.47
51999;BME280;38015;50.924;11.598;2022-07-29T06:47:18;99538.80;;;25.70;32.37
51999;BME280;38015;50.924;11.598;2022-07-29T06:49:48;99538.09;;;25.73;32.36
51999;BME280;38015;50.924;11.598;2022-07-29T06:52:18;99529.62;;;25.90;32.18
51999;BME280;38015;50.924;11.598;2022-07-29T06:54:49;99530.85;;;25.99;31.89
51999;BME280;38015;50.924;11.598;2022-07-29T06:57:19;99532.36;;;25.97;31.95
51999;BME280;38015;50.924;11.598;2022-07-29T06:59:49;99530.46;;;25.91;32.04
51999;BME280;38015;50.924;11.598;2022-07-29T07:02:20;99528.16;;;25.87;32.05
51999;BME280;38015;50.924;11.598;2022-07-29T07:04:50;99529.85;;;25.88;32.04
51999;BME280;38015;50.924;11.598;2022-07-29T07:07:20;99527.48;;;25.84;32.10
51999;BME280;38015;50.924;11.598;2022-07-29T07:09:50;99527.93;;;25.93;31.98
51999;BME280;38015;50.924;11.598;2022-07-29T07:12:21;99527.88;;;25.93;31.94
51999;BME280;38015;50.924;11.598;2022-07-29T07:14:51;99527.46;;;25.90;31.98
51999;BME280;38015;50.924;11.598;2022-07-29T07:17:21;99526.72;;;25.89;32.15
51999;BME280;38015;50.924;11.598;2022-07-29T07:19:52;99525.35;;;25.91;32.03
51999;BME280;38015;50.924;11.598;2022-07-29T07:22:22;99525.79;;;25.88;32.06
51999;BME280;38015;50.924;11.598;2022-07-29T07:24:53;99523.03;;;25.77;32.36
51999;BME280;38015;50.924;11.598;2022-07-29T07:27:23;99520.33;;;25.89;31.83
51999;BME280;38015;50.924;11.598;2022-07-29T07:29:53;99520.90;;;25.84;32.09
51999;BME280;38015;50.924;11.598;2022-07-29T07:32:23;99517.90;;;25.81;32.17
51999;BME280;38015;50.924;11.598;2022-07-29T07:34:54;99514.31;;;25.73;32.19
51999;BME280;38015;50.924;11.598;2022-07-29T07:37:25;99514.83;;;25.61;32.67
51999;BME280;38015;50.924;11.598;2022-07-29T07:39:54;99513.68;;;25.69;32.39
51999;BME280;38015;50.924;11.598;2022-07-29T07:42:25;99511.08;;;25.72;32.41
51999;BME280;38015;50.924;11.598;2022-07-29T07:44:55;99511.88;;;25.65;32.55
51999;BME280;38015;50.924;11.598;2022-07-29T07:47:25;99508.82;;;25.56;32.74
51999;BME280;38015;50.924;11.598;2022-07-29T07:49:56;99505.27;;;25.66;32.52
51999;BME280;38015;50.924;11.598;2022-07-29T07:52:26;99500.21;;;25.79;32.29
51999;BME280;38015;50.924;11.598;2022-07-29T07:54:56;99500.23;;;25.77;32.34
51999;BME280;38015;50.924;11.598;2022-07-29T07:57:27;99497.34;;;25.82;32.23
51999;BME280;38015;50.924;11.598;2022-07-29T07:59:57;99499.45;;;25.78;32.27
51999;BME280;38015;50.924;11.598;2022-07-29T08:02:28;99500.76;;;25.82;32.23
51999;BME280;38015;50.924;11.598;2022-07-29T08:04:58;99499.13;;;25.79;32.21
51999;BME280;38015;50.924;11.598;2022-07-29T08:07:28;99496.17;;;25.80;32.36
51999;BME280;38015;50.924;11.598;2022-07-29T08:09:59;99496.35;;;25.77;32.27
51999;BME280;38015;50.924;11.598;2022-07-29T08:12:29;99497.00;;;25.80;32.18
51999;BME280;38015;50.924;11.598;2022-07-29T08:14:59;99497.16;;;25.70;32.40
51999;BME280;38015;50.924;11.598;2022-07-29T08:17:30;99499.47;;;25.68;32.53
51999;BME280;38015;50.924;11.598;2022-07-29T08:20:00;99499.91;;;25.79;32.23
51999;BME280;38015;50.924;11.598;2022-07-29T08:22:31;99498.20;;;25.82;32.20
51999;BME280;38015;50.924;11.598;2022-07-29T08:25:01;99495.59;;;25.65;32.72
51999;BME280;38015;50.924;11.598;2022-07-29T08:27:31;99497.08;;;25.65;32.59
51999;BME280;38015;50.924;11.598;2022-07-29T08:30:01;99499.84;;;25.73;32.48
51999;BME280;38015;50.924;11.598;2022-07-29T08:32:31;99497.72;;;25.60;32.66
51999;BME280;38015;50.924;11.598;2022-07-29T08:35:02;99497.54;;;25.69;32.49
51999;BME280;38015;50.924;11.598;2022-07-29T08:37:32;99495.80;;;25.77;32.48
51999;BME280;38015;50.924;11.598;2022-07-29T08:40:03;99493.06;;;25.63;32.62
51999;BME280;38015;50.924;11.598;2022-07-29T08:42:33;99495.49;;;25.79;32.40
51999;BME280;38015;50.924;11.598;2022-07-29T08:45:04;99491.38;;;25.66;32.60
51999;BME280;38015;50.924;11.598;2022-07-29T08:47:34;99490.42;;;25.69;32.54
51999;BME280;38015;50.924;11.598;2022-07-29T08:50:04;99485.59;;;25.71;32.49
51999;BME280;38015;50.924;11.598;2022-07-29T08:52:37;99484.93;;;25.66;32.63
51999;BME280;38015;50.924;11.598;2022-07-29T08:55:06;99487.30;;;25.70;32.52
51999;BME280;38015;50.924;11.598;2022-07-29T08:57:35;99484.78;;;25.90;32.10
51999;BME280;38015;50.924;11.598;2022-07-29T09:00:07;99484.47;;;25.82;32.50
51999;BME280;38015;50.924;11.598;2022-07-29T09:02:39;99477.99;;;25.94;32.05
51999;BME280;38015;50.924;11.598;2022-07-29T09:05:07;99477.24;;;25.82;32.29
51999;BME280;38015;50.924;11.598;2022-07-29T09:07:36;99478.36;;;25.97;32.05
51999;BME280;38015;50.924;11.598;2022-07-29T09:10:07;99476.87;;;25.89;32.47
51999;BME280;38015;50.924;11.598;2022-07-29T09:12:37;99474.28;;;25.84;32.30
51999;BME280;38015;50.924;11.598;2022-07-29T09:15:08;99469.94;;;25.80;32.58
51999;BME280;38015;50.924;11.598;2022-07-29T09:17:41;99469.67;;;25.93;32.24
51999;BME280;38015;50.924;11.598;2022-07-29T09:20:10;99463.49;;;26.11;31.80
51999;BME280;38015;50.924;11.598;2022-07-29T09:22:39;99462.54;;;25.91;32.24
51999;BME280;38015;50.924;11.598;2022-07-29T09:25:11;99460.09;;;26.30;31.47
51999;BME280;38015;50.924;11.598;2022-07-29T09:27:38;99456.47;;;26.06;31.81
51999;BME280;38015;50.924;11.598;2022-07-29T09:30:13;99452.43;;;26.12;31.84
51999;BME280;38015;50.924;11.598;2022-07-29T09:35:15;99453.81;;;26.01;31.94
51999;BME280;38015;50.924;11.598;2022-07-29T09:37:40;99450.61;;;25.93;32.16
51999;BME280;38015;50.924;11.598;2022-07-29T09:40:13;99452.83;;;26.17;31.67
51999;BME280;38015;50.924;11.598;2022-07-29T09:42:41;99447.96;;;26.17;31.77
51999;BME280;38015;50.924;11.598;2022-07-29T09:45:11;99447.55;;;26.14;31.78
51999;BME280;38015;50.924;11.598;2022-07-29T09:47:43;99449.39;;;26.25;31.61
51999;BME280;38015;50.924;11.598;2022-07-29T09:50:11;99446.36;;;26.48;31.03
51999;BME280;38015;50.924;11.598;2022-07-29T09:52:46;99443.20;;;26.27;31.43
51999;BME280;38015;50.924;11.598;2022-07-29T09:55:13;99438.68;;;26.45;31.03
51999;BME280;38015;50.924;11.598;2022-07-29T09:57:43;99440.48;;;26.29;31.46
51999;BME280;38015;50.924;11.598;2022-07-29T10:00:15;99431.30;;;26.62;30.70
51999;BME280;38015;50.924;11.598;2022-07-29T10:02:44;99428.22;;;26.69;30.42
51999;BME280;38015;50.924;11.598;2022-07-29T10:05:19;99432.11;;;26.33;31.27
51999;BME280;38015;50.924;11.598;2022-07-29T10:07:45;99429.08;;;26.23;31.45
51999;BME280;38015;50.924;11.598;2022-07-29T10:10:20;99426.89;;;26.37;31.10
51999;BME280;38015;50.924;11.598;2022-07-29T10:12:50;99419.72;;;26.26;31.33
51999;BME280;38015;50.924;11.598;2022-07-29T10:15:15;99421.64;;;26.25;31.34
51999;BME280;38015;50.924;11.598;2022-07-29T10:17:45;99421.97;;;26.35;31.15
51999;BME280;38015;50.924;11.598;2022-07-29T10:20:16;99415.68;;;26.32;31.12
51999;BME280;38015;50.924;11.598;2022-07-29T10:22:46;99416.67;;;26.36;31.04
51999;BME280;38015;50.924;11.598;2022-07-29T10:25:16;99418.23;;;26.35;31.03
51999;BME280;38015;50.924;11.598;2022-07-29T10:27:47;99422.53;;;26.30;31.16
51999;BME280;38015;50.924;11.598;2022-07-29T10:30:17;99424.49;;;26.28;31.16
51999;BME280;38015;50.924;11.598;2022-07-29T10:32:59;99423.79;;;26.31;31.12
51999;BME280;38015;50.924;11.598;2022-07-29T10:35:27;99418.82;;;26.36;30.98
51999;BME280;38015;50.924;11.598;2022-07-29T10:37:57;99413.49;;;26.27;31.20
51999;BME280;38015;50.924;11.598;2022-07-29T10:40:25;99411.92;;;26.36;31.02
51999;BME280;38015;50.924;11.598;2022-07-29T10:42:49;99405.14;;;26.22;31.30
51999;BME280;38015;50.924;11.598;2022-07-29T10:45:18;99404.89;;;26.32;31.12
51999;BME280;38015;50.924;11.598;2022-07-29T10:47:48;99395.18;;;26.32;31.05
51999;BME280;38015;50.924;11.598;2022-07-29T10:50:19;99392.28;;;26.30;31.06
51999;BME280;38015;50.924;11.598;2022-07-29T10:52:53;99393.74;;;26.30;31.11
51999;BME280;38015;50.924;11.598;2022-07-29T11:00:26;99389.02;;;26.42;30.81
51999;BME280;38015;50.924;11.598;2022-07-29T11:02:50;99385.57;;;26.38;30.94
51999;BME280;38015;50.924;11.598;2022-07-29T11:05:20;99384.76;;;26.21;31.24
51999;BME280;38015;50.924;11.598;2022-07-29T11:10:23;99379.87;;;26.12;31.47
51999;BME280;38015;50.924;11.598;2022-07-29T11:12:51;99376.77;;;26.23;31.24
51999;BME280;38015;50.924;11.598;2022-07-29T11:15:22;99371.77;;;26.23;31.22
51999;BME280;38015;50.924;11.598;2022-07-29T11:20:31;99368.80;;;26.20;31.33
51999;BME280;38015;50.924;11.598;2022-07-29T11:22:53;99366.40;;;26.22;31.22
51999;BME280;38015;50.924;11.598;2022-07-29T11:25:24;99372.99;;;26.12;31.46
51999;BME280;38015;50.924;11.598;2022-07-29T11:32:54;99357.54;;;26.16;31.35
51999;BME280;38015;50.924;11.598;2022-07-29T11:35:25;99362.00;;;26.26;31.22
51999;BME280;38015;50.924;11.598;2022-07-29T11:40:25;99366.97;;;26.32;31.09
51999;BME280;38015;50.924;11.598;2022-07-29T11:42:56;99371.93;;;26.40;30.95
51999;BME280;38015;50.924;11.598;2022-07-29T11:45:27;99375.11;;;26.26;31.24
51999;BME280;38015;50.924;11.598;2022-07-29T11:47:58;99376.07;;;26.14;31.49
51999;BME280;38015;50.924;11.598;2022-07-29T11:50:30;99369.15;;;26.26;31.26
51999;BME280;38015;50.924;11.598;2022-07-29T11:52:57;99366.04;;;26.10;31.61
51999;BME280;38015;50.924;11.598;2022-07-29T11:55:27;99364.70;;;26.12;31.58
51999;BME280;38015;50.924;11.598;2022-07-29T11:57:59;99362.10;;;26.15;31.53
51999;BME280;38015;50.924;11.598;2022-07-29T12:00:30;99365.41;;;26.17;31.52
51999;BME280;38015;50.924;11.598;2022-07-29T12:03:00;99364.27;;;26.05;31.73
51999;BME280;38015;50.924;11.598;2022-07-29T12:05:34;99363.92;;;26.21;31.41
51999;BME280;38015;50.924;11.598;2022-07-29T12:08:04;99362.72;;;26.19;31.51
51999;BME280;38015;50.924;11.598;2022-07-29T12:10:30;99359.71;;;26.37;31.09
51999;BME280;38015;50.924;11.598;2022-07-29T12:12:59;99358.24;;;26.33;31.17
51999;BME280;38015;50.924;11.598;2022-07-29T12:15:30;99354.29;;;26.24;31.37
51999;BME280;38015;50.924;11.598;2022-07-29T12:20:30;99348.81;;;26.17;31.52
51999;BME280;38015;50.924;11.598;2022-07-29T12:23:05;99345.59;;;26.32;31.26
51999;BME280;38015;50.924;11.598;2022-07-29T12:25:33;99347.79;;;26.35;31.18
51999;BME280;38015;50.924;11.598;2022-07-29T12:28:03;99351.97;;;26.31;31.21
51999;BME280;38015;50.924;11.598;2022-07-29T12:30:37;99349.77;;;26.22;31.38
51999;BME280;38015;50.924;11.598;2022-07-29T12:33:11;99350.87;;;26.24;31.38
51999;BME280;38015;50.924;11.598;2022-07-29T12:35:32;99350.13;;;26.28;31.34
51999;BME280;38015;50.924;11.598;2022-07-29T12:38:03;99347.00;;;26.32;31.23
51999;BME280;38015;50.924;11.598;2022-07-29T12:40:33;99348.58;;;26.32;31.26
51999;BME280;38015;50.924;11.598;2022-07-29T12:43:08;99349.22;;;26.28;31.33
51999;BME280;38015;50.924;11.598;2022-07-29T12:45:34;99347.64;;;26.37;31.14
51999;BME280;38015;50.924;11.598;2022-07-29T12:48:05;99343.57;;;26.21;31.48
51999;BME280;38015;50.924;11.598;2022-07-29T12:50:35;99338.89;;;26.29;31.30
51999;BME280;38015;50.924;11.598;2022-07-29T12:53:09;99339.23;;;26.33;31.27
51999;BME280;38015;50.924;11.598;2022-07-29T12:55:39;99338.62;;;26.38;31.15
51999;BME280;38015;50.924;11.598;2022-07-29T12:58:05;99339.40;;;26.33;31.26
51999;BME280;38015;50.924;11.598;2022-07-29T13:00:35;99337.15;;;26.27;31.39
51999;BME280;38015;50.924;11.598;2022-07-29T13:03:05;99331.48;;;26.20;31.51
51999;BME280;38015;50.924;11.598;2022-07-29T13:05:40;99328.72;;;26.24;31.47
51999;BME280;38015;50.924;11.598;2022-07-29T13:08:11;99326.63;;;26.21;31.50
51999;BME280;38015;50.924;11.598;2022-07-29T13:10:36;99324.45;;;26.20;31.53
51999;BME280;38015;50.924;11.598;2022-07-29T13:13:08;99326.53;;;26.30;31.38
51999;BME280;38015;50.924;11.598;2022-07-29T13:15:39;99332.29;;;26.20;31.55
51999;BME280;38015;50.924;11.598;2022-07-29T13:20:38;99331.57;;;26.34;31.32
51999;BME280;38015;50.924;11.598;2022-07-29T13:23:08;99331.54;;;26.19;31.59
51999;BME280;38015;50.924;11.598;2022-07-29T13:25:39;99332.30;;;26.07;31.85
51999;BME280;38015;50.924;11.598;2022-07-29T13:28:09;99331.78;;;26.16;31.68
51999;BME280;38015;50.924;11.598;2022-07-29T13:30:39;99330.92;;;26.22;31.56